Franklin, Nebraska
Current Conditions -  °F | °C
As of 12:15 AM on Monday 26 Jan 2015 (Local Time) from KHDE Reporting Station
Overcast Overcast  
Wind Chill: 31°   Ceiling: 8500
Heat Index: 37°   Visibility: 10mi
Dew Point: 26°   Wind: 8mph
Humidity: 65%   Direction: 210°SSW
Pressure: 30.04"   Gusts: NA
Location:  40.1°N, 98.95°W
Report Text: KHDE 260615Z AUTO 21007KT 10SM OVC085 03/M03 A3004 RMK AO2 T00301031
Loading
Personal Weather Stations






























Interactive Weather Map New forecast layout! Learn more

10-Day Weather Forecast

Advertisements
Track Severe Weather on mobile